Main page
METAR-TAF:

METAR-TAF

Airports :

Moore County Airport

Dumas, Texas, United States

latitude: 35-51-28N, longitude: 102-00-47W, elevation: 3703 ft

Current weather observation

The report was made 14 minutes ago, at 14:55 UTC
Wind 18 mph from the South
Temperature 64°F
Humidity 68%
Pressure 30.15 in. Hg
Visibility: 10 miles
Scattered clouds at a height of 2000 ft

METAR: KDUX 211455Z AUTO 17016KT 10SM SCT020 18/12 A3015 RMK AO2 T01790119

Time: 10:09 (15:09 UTC)


TAF: missing

Weather observations and forecasts of more than 4000 airports (METAR and TAF reports).

The available stations are represented by yellow and red dots on the map.

Hover mouse over dot to see the name of the station.

Then click to see weather observations and forecasts.

To change the map : click on the green buttons with a black cross to zoom in, on the green button with a dash to zoom out, or on the green arrows for adjacent maps.


METAR-TAF: